Date,TemperatureHighF,TemperatureAvgF,TemperatureLowF,DewpointHighF,DewpointAvgF,DewpointLowF,HumidityHigh,HumidityAvg,HumidityLow,PressureMaxIn,PressureMinIn,WindSpeedMaxMPH,WindSpeedAvgMPH,GustSpeedMaxMPH,PrecipitationSumIn
2013-1-1,78.2,77.6,77.3,-99.9,-99.9,-99.9,43,42,40,29.91,29.78,0,-999,0,0.00
2013-1-2,77.9,77.6,77.3,-99.9,-99.9,-99.9,43,41,39,30.36,29.86,0,-999,0,0.00
2013-1-3,78.0,77.8,77.5,-99.9,-99.9,-99.9,41,40,37,30.37,30.27,0,-999,0,0.00
2013-1-4,78.2,77.9,77.3,-99.9,-99.9,-99.9,43,40,37,30.39,30.14,0,-999,0,0.00
2013-1-5,78.4,78.0,77.7,-99.9,-99.9,-99.9,44,43,40,30.31,30.14,0,-999,0,0.00
2013-1-6,78.6,78.1,77.9,-99.9,-99.9,-99.9,45,43,40,30.29,30.09,0,-999,0,0.00
2013-1-7,78.6,77.5,76.6,-99.9,-99.9,-99.9,46,42,33,30.32,30.15,0,-999,0,0.00
2013-1-8,78.4,77.5,77.0,-99.9,-99.9,-99.9,45,40,38,30.28,30.13,0,-999,0,0.00
2013-1-9,78.6,77.8,77.0,-99.9,-99.9,-99.9,44,41,36,30.16,29.86,0,-999,0,0.00
2013-1-10,78.6,77.9,77.3,-99.9,-99.9,-99.9,42,40,36,29.85,29.67,0,-999,0,0.00
2013-1-11,77.9,77.3,76.6,-99.9,-99.9,-99.9,42,37,31,29.98,29.69,0,-999,0,0.00
2013-1-12,77.7,77.4,76.4,-99.9,-99.9,-99.9,42,38,28,30.04,29.96,0,-999,0,0.00
2013-1-13,77.3,76.9,76.4,-99.9,-99.9,-99.9,39,36,30,30.04,30.01,0,-999,0,0.00
2013-1-14,77.7,76.9,76.1,-99.9,-99.9,-99.9,43,38,36,30.01,29.86,0,-999,0,0.00
2013-1-15,77.1,76.3,75.2,-99.9,-99.9,-99.9,37,35,29,29.89,29.71,0,-999,0,0.00
2013-1-16,77.1,76.2,75.5,-99.9,-99.9,-99.9,37,35,33,29.74,29.69,0,-999,0,0.00
2013-1-17,77.3,77.1,76.4,-99.9,-99.9,-99.9,39,36,35,29.88,29.71,0,-999,0,0.00
2013-1-18,77.5,77.2,76.8,-99.9,-99.9,-99.9,37,35,30,29.87,29.67,0,-999,0,0.00
2013-1-19,77.9,76.9,76.6,-99.9,-99.9,-99.9,39,35,32,29.67,29.52,0,-999,0,0.00
2013-1-20,77.9,77.3,76.8,-99.9,-99.9,-99.9,43,38,35,29.54,29.44,0,-999,0,0.00
2013-1-21,77.3,76.6,75.7,-99.9,-99.9,-99.9,44,40,33,29.57,29.42,0,-999,0,0.00
2013-1-22,77.0,76.5,75.9,-99.9,-99.9,-99.9,41,37,30,29.75,29.57,0,-999,0,0.00
2013-1-23,77.3,76.7,75.9,-99.9,-99.9,-99.9,44,39,29,29.78,29.73,0,-999,0,0.00
2013-1-24,77.9,77.5,77.0,-99.9,-99.9,-99.9,39,36,34,29.95,29.75,0,-999,0,0.00
2013-1-25,77.1,76.6,76.1,-99.9,-99.9,-99.9,37,34,32,30.11,29.95,0,-999,0,0.00
2013-1-26,76.4,76.1,75.5,-99.9,-99.9,-99.9,37,34,29,30.06,29.96,0,-999,0,0.00
2013-1-27,75.9,75.5,75.2,-99.9,-99.9,-99.9,45,39,33,29.97,29.71,0,-999,0,0.00
2013-1-28,75.5,75.1,74.1,-99.9,-99.9,-99.9,42,39,32,30.04,29.73,0,-999,0,0.00
2013-1-29,75.9,75.4,75.0,-99.9,-99.9,-99.9,41,38,35,30.04,29.84,0,-999,0,0.00
2013-1-30,76.4,76.0,75.5,-99.9,-99.9,-99.9,39,39,38,29.87,29.64,0,-999,0,0.00
2013-1-31,77.0,76.4,75.5,-99.9,-99.9,-99.9,43,39,31,29.94,29.74,0,-999,0,0.00
2013-2-1,77.1,76.6,76.2,-99.9,-99.9,-99.9,39,38,36,29.80,29.26,0,-999,0,0.00
2013-2-2,77.5,76.9,76.6,-99.9,-99.9,-99.9,41,39,37,29.72,29.16,0,-999,0,0.00
2013-2-3,77.1,76.8,76.6,-99.9,-99.9,-99.9,40,39,37,29.92,29.72,0,-999,0,0.00
2013-2-4,77.1,76.8,76.2,-99.9,-99.9,-99.9,41,38,34,29.77,29.68,0,-999,0,0.00
2013-2-5,77.0,76.7,76.2,-99.9,-99.9,-99.9,41,38,36,29.77,29.45,0,-999,0,0.00
2013-2-6,77.3,76.8,76.4,-99.9,-99.9,-99.9,40,37,32,29.57,29.47,0,-999,0,0.00
2013-2-7,77.1,76.9,76.6,-99.9,-99.9,-99.9,39,38,37,29.78,29.57,0,-999,0,0.00
2013-2-8,77.7,76.9,76.2,-99.9,-99.9,-99.9,39,36,29,29.90,29.77,0,-999,0,0.00
2013-2-9,77.7,77.1,76.4,-99.9,-99.9,-99.9,40,38,31,30.01,29.90,0,-999,0,0.00
2013-2-10,77.7,76.7,75.7,-99.9,-99.9,-99.9,43,36,28,30.01,29.86,0,-999,0,0.00
2013-2-11,77.7,77.3,76.8,-99.9,-99.9,-99.9,42,37,35,29.86,29.73,0,-999,0,0.00
2013-2-12,77.5,77.0,76.4,-99.9,-99.9,-99.9,39,36,29,29.90,29.71,0,-999,0,0.00
2013-2-13,77.3,77.1,76.4,-99.9,-99.9,-99.9,37,34,29,30.27,29.90,0,-999,0,0.00
2013-2-14,77.5,76.9,76.4,-99.9,-99.9,-99.9,37,35,33,30.27,30.06,0,-999,0,0.00
2013-2-15,77.9,77.6,77.1,-99.9,-99.9,-99.9,37,35,33,30.13,30.00,0,-999,0,0.00
2013-2-16,77.9,77.3,76.8,-99.9,-99.9,-99.9,43,37,30,30.20,30.13,0,-999,0,0.00
2013-2-17,77.5,76.8,76.2,-99.9,-99.9,-99.9,41,36,31,30.22,30.18,0,-999,0,0.00
2013-2-18,77.9,77.5,77.0,-99.9,-99.9,-99.9,38,36,31,30.18,30.05,0,-999,0,0.00
2013-2-19,78.0,77.5,77.0,-99.9,-99.9,-99.9,37,36,33,30.05,29.78,0,-999,0,0.00
2013-2-20,78.0,77.5,77.0,-99.9,-99.9,-99.9,38,36,29,30.09,29.92,0,-999,0,0.00
2013-2-21,77.7,77.2,76.6,-99.9,-99.9,-99.9,36,35,32,30.11,30.04,0,-999,0,0.00
2013-2-22,77.3,76.9,76.4,-99.9,-99.9,-99.9,35,34,28,30.04,29.83,0,-999,0,0.00
2013-2-23,77.5,76.8,76.2,-99.9,-99.9,-99.9,38,35,33,29.83,29.70,0,-999,0,0.00
2013-2-24,77.7,76.9,76.1,-99.9,-99.9,-99.9,40,36,30,29.92,29.72,0,-999,0,0.00
2013-2-25,77.5,77.2,76.8,-99.9,-99.9,-99.9,37,37,35,30.22,29.89,0,-999,0,0.00
2013-2-26,77.3,77.0,76.4,-99.9,-99.9,-99.9,38,37,35,30.33,30.21,0,-999,0,0.00
2013-2-27,77.1,76.6,76.2,-99.9,-99.9,-99.9,38,37,36,30.38,30.33,0,-999,0,0.00
2013-2-28,76.6,76.0,75.5,-99.9,-99.9,-99.9,42,38,31,30.36,30.16,0,-999,0,0.00
2013-3-1,77.3,76.8,75.9,-99.9,-99.9,-99.9,41,39,35,30.20,30.09,0,-999,0,0.00
2013-3-2,78.0,77.4,77.0,-99.9,-99.9,-99.9,38,36,30,30.22,30.09,0,-999,0,0.00
2013-3-3,78.4,77.9,77.7,-99.9,-99.9,-99.9,38,36,34,30.19,30.06,0,-999,0,0.00
2013-3-4,78.8,78.5,78.0,-99.9,-99.9,-99.9,38,36,33,30.24,30.15,0,-999,0,0.00
2013-3-5,79.3,78.8,78.0,-99.9,-99.9,-99.9,36,34,27,30.15,29.85,0,-999,0,0.00
2013-3-6,79.1,78.8,78.6,-99.9,-99.9,-99.9,36,34,32,29.85,29.62,0,-999,0,0.00
2013-3-7,78.9,78.6,78.0,-99.9,-99.9,-99.9,39,35,33,29.63,29.56,0,-999,0,0.00
2013-3-8,78.8,78.7,78.4,-99.9,-99.9,-99.9,39,37,36,29.64,29.60,0,-999,0,0.00
2013-3-9,78.6,78.1,77.0,-99.9,-99.9,-99.9,43,38,33,29.64,29.55,0,-999,0,0.00
2013-3-10,78.4,78.0,77.7,-99.9,-99.9,-99.9,44,41,39,29.56,29.42,0,-999,0,0.00
2013-3-11,78.0,77.8,76.8,-99.9,-99.9,-99.9,41,38,30,29.67,29.42,0,-999,0,0.00
2013-3-12,77.0,76.4,75.9,-99.9,-99.9,-99.9,37,34,31,29.65,29.49,0,-999,0,0.00
2013-3-13,76.2,75.8,75.5,-99.9,-99.9,-99.9,35,33,28,29.70,29.49,0,-999,0,0.00
2013-3-14,76.2,75.6,75.2,-99.9,-99.9,-99.9,36,31,29,29.79,29.70,0,-999,0,0.00
2013-3-15,77.0,76.4,75.9,-99.9,-99.9,-99.9,35,32,31,30.03,29.77,0,-999,0,0.00
2013-3-16,76.4,75.8,74.6,-99.9,-99.9,-99.9,36,30,22,30.11,29.98,0,-999,0,0.00
2013-3-17,75.9,75.6,75.0,-99.9,-99.9,-99.9,39,34,27,29.99,29.66,0,-999,0,0.00
2013-3-18,76.1,75.8,75.5,-99.9,-99.9,-99.9,39,36,34,29.66,29.22,0,-999,0,0.00
2013-3-19,76.1,75.8,75.3,-99.9,-99.9,-99.9,38,36,35,29.56,29.21,0,-999,0,0.00
2013-3-20,75.7,75.1,74.4,-99.9,-99.9,-99.9,40,36,32,29.75,29.56,0,-999,0,0.00
2013-3-21,76.1,75.9,75.2,-99.9,-99.9,-99.9,38,37,31,30.04,29.76,0,-999,0,0.00
2013-3-22,76.8,76.2,75.5,-99.9,-99.9,-99.9,37,36,32,30.09,30.03,0,-999,0,0.00
2013-3-23,77.0,76.6,76.2,-99.9,-99.9,-99.9,38,36,32,30.17,30.08,0,-999,0,0.00
2013-3-24,77.3,76.5,75.9,-99.9,-99.9,-99.9,39,33,28,30.17,30.04,0,-999,0,0.00
2013-3-25,76.6,76.3,76.1,-99.9,-99.9,-99.9,33,32,27,30.05,29.88,0,-999,0,0.00
2013-3-26,76.6,76.3,75.9,-99.9,-99.9,-99.9,32,31,28,29.89,29.81,0,-999,0,0.00
2013-3-27,76.6,76.2,75.9,-99.9,-99.9,-99.9,34,32,30,29.89,29.84,0,-999,0,0.00
2013-3-28,76.6,76.2,75.9,-99.9,-99.9,-99.9,34,32,30,29.87,29.74,0,-999,0,0.00
2013-3-29,76.6,76.4,76.1,-99.9,-99.9,-99.9,36,33,32,29.73,29.63,0,-999,0,0.00
2013-3-30,76.8,76.4,76.2,-99.9,-99.9,-99.9,41,36,33,29.71,29.63,0,-999,0,0.00
2013-3-31,77.0,76.3,75.5,-99.9,-99.9,-99.9,40,37,28,29.76,29.67,0,-999,0,0.00
2013-4-1,77.0,76.0,75.3,-99.9,-99.9,-99.9,43,37,32,29.86,29.74,0,-999,0,0.00
2013-4-2,75.9,75.4,75.0,-99.9,-99.9,-99.9,44,39,33,29.91,29.83,0,-999,0,0.00
2013-4-3,76.2,75.7,75.2,-99.9,-99.9,-99.9,39,36,35,29.94,29.91,0,-999,0,0.00
2013-4-4,75.7,75.4,74.4,-99.9,-99.9,-99.9,42,37,28,29.92,29.81,0,-999,0,0.00
2013-4-5,75.9,75.3,74.4,-99.9,-99.9,-99.9,41,38,31,29.82,29.70,0,-999,0,0.00
2013-4-6,76.4,76.0,75.7,-99.9,-99.9,-99.9,40,38,37,30.10,29.83,0,-999,0,0.00
2013-4-7,76.8,76.2,75.9,-99.9,-99.9,-99.9,40,37,35,30.12,30.02,0,-999,0,0.00
2013-4-8,77.0,76.6,76.1,-99.9,-99.9,-99.9,41,37,32,30.02,29.70,0,-999,0,0.00
2013-4-9,77.7,77.2,76.6,-99.9,-99.9,-99.9,38,37,35,29.70,29.63,0,-999,0,0.00
2013-4-10,77.9,77.5,77.1,-99.9,-99.9,-99.9,39,38,36,29.82,29.63,0,-999,0,0.00
2013-4-11,78.0,77.5,77.0,-99.9,-99.9,-99.9,39,37,36,29.82,29.60,0,-999,0,0.00
2013-4-12,78.2,77.6,77.0,-99.9,-99.9,-99.9,40,38,32,29.78,29.53,0,-999,0,0.00
2013-4-13,78.2,77.7,77.0,-99.9,-99.9,-99.9,46,39,36,30.23,29.78,0,-999,0,0.00
2013-4-14,78.8,78.3,78.0,-99.9,-99.9,-99.9,43,40,36,30.33,30.23,0,-999,0,0.00
2013-4-15,79.1,78.6,77.9,-99.9,-99.9,-99.9,43,38,35,30.29,30.12,0,-999,0,0.00
2013-4-16,79.7,79.1,78.6,-99.9,-99.9,-99.9,42,38,37,30.15,30.07,0,-999,0,0.00
2013-4-17,80.0,79.4,78.8,-99.9,-99.9,-99.9,43,40,38,30.20,30.12,0,-999,0,0.00
2013-4-18,80.6,80.1,79.8,-99.9,-99.9,-99.9,44,42,40,30.13,29.92,0,-999,0,0.00
2013-4-19,80.9,80.6,80.2,-99.9,-99.9,-99.9,43,41,40,30.22,29.99,0,-999,0,0.00
2013-4-20,80.6,80.1,79.5,-99.9,-99.9,-99.9,43,40,36,30.29,30.22,0,-999,0,0.00
2013-4-21,80.6,80.1,79.7,-99.9,-99.9,-99.9,43,40,38,30.24,29.92,0,-999,0,0.00
2013-4-22,81.1,80.7,80.4,-99.9,-99.9,-99.9,44,41,40,30.01,29.90,0,-999,0,0.00
2013-4-23,81.1,80.8,80.6,-99.9,-99.9,-99.9,43,42,36,30.20,30.01,0,-999,0,0.00
2013-4-24,81.3,80.6,80.0,-99.9,-99.9,-99.9,42,40,36,30.31,30.20,0,-999,0,0.00
2013-4-25,81.5,80.8,80.0,-99.9,-99.9,-99.9,41,39,36,30.27,30.09,0,-999,0,0.00
2013-4-26,81.8,81.2,80.4,-99.9,-99.9,-99.9,44,40,36,30.09,29.57,0,-999,0,0.00
2013-4-27,82.0,81.6,81.3,-99.9,-99.9,-99.9,47,41,40,29.72,29.56,0,-999,0,0.00
2013-4-28,81.6,81.0,80.6,-99.9,-99.9,-99.9,44,39,35,30.01,29.67,0,-999,0,0.00
2013-4-29,81.6,81.3,80.6,-99.9,-99.9,-99.9,41,40,38,30.12,29.95,0,-999,0,0.00
2013-4-30,80.9,80.6,79.5,-99.9,-99.9,-99.9,40,37,37,30.14,30.02,0,-999,0,0.00
2013-5-1,80.4,79.9,79.5,-99.9,-99.9,-99.9,41,38,36,30.22,30.07,0,-999,0,0.00
2013-5-2,79.8,79.6,79.1,-99.9,-99.9,-99.9,42,40,38,30.14,29.97,0,-999,0,0.00
2013-5-3,80.0,79.6,79.1,-99.9,-99.9,-99.9,44,41,38,29.98,29.92,0,-999,0,0.00
2013-5-4,80.2,79.7,79.3,-99.9,-99.9,-99.9,43,41,39,30.09,29.98,0,-999,0,0.00
2013-5-5,80.0,79.7,79.3,-99.9,-99.9,-99.9,43,42,40,30.22,30.09,0,-999,0,0.00
2013-5-6,80.9,80.4,79.8,-99.9,-99.9,-99.9,44,42,40,30.19,29.99,0,-999,0,0.00
2013-5-7,81.1,80.7,80.2,-99.9,-99.9,-99.9,47,44,43,30.00,29.91,0,-999,0,0.00
2013-5-8,80.9,80.7,80.6,-99.9,-99.9,-99.9,49,46,44,29.98,29.89,0,-999,0,0.00
2013-5-9,80.9,80.7,78.8,-99.9,-99.9,-99.9,49,45,42,29.96,29.86,0,-999,0,0.00
2013-5-10,80.9,80.4,79.8,-99.9,-99.9,-99.9,51,47,45,29.99,29.83,0,-999,0,0.00
2013-5-11,80.9,80.2,78.8,-99.9,-99.9,-99.9,50,46,39,29.99,29.92,0,-999,0,0.00
2013-5-12,79.8,79.5,79.3,-99.9,-99.9,-99.9,48,42,38,30.01,29.84,0,-999,0,0.00
2013-5-13,80.4,80.0,79.5,-99.9,-99.9,-99.9,45,42,37,30.05,29.96,0,-999,0,0.00
2013-5-14,80.7,80.2,79.7,-99.9,-99.9,-99.9,44,41,38,29.96,29.80,0,-999,0,0.00
2013-5-15,80.9,80.3,79.1,-99.9,-99.9,-99.9,42,40,39,29.80,29.59,0,-999,0,0.00
2013-5-16,80.9,80.0,79.5,-99.9,-99.9,-99.9,44,39,38,29.60,29.47,0,-999,0,0.00
2013-5-17,80.9,80.6,80.2,-99.9,-99.9,-99.9,44,42,40,29.55,29.48,0,-999,0,0.00
2013-5-18,80.9,80.3,79.5,-99.9,-99.9,-99.9,44,41,38,29.84,29.55,0,-999,0,0.00
2013-5-19,81.5,80.5,79.7,-99.9,-99.9,-99.9,46,41,38,29.82,29.61,0,-999,0,0.00
2013-5-20,81.1,80.5,79.8,-99.9,-99.9,-99.9,46,40,32,29.88,29.75,0,-999,0,0.00
2013-5-21,80.4,80.1,79.7,-99.9,-99.9,-99.9,39,36,33,29.91,29.77,0,-999,0,0.00
2013-5-22,80.2,79.8,79.3,-99.9,-99.9,-99.9,41,38,36,29.82,29.65,0,-999,0,0.00
2013-5-23,80.2,79.2,78.6,-99.9,-99.9,-99.9,40,34,31,29.83,29.69,0,-999,0,0.00
2013-5-24,79.3,78.9,78.4,-99.9,-99.9,-99.9,38,35,33,29.83,29.70,0,-999,0,0.00
2013-5-25,78.9,78.6,78.2,-99.9,-99.9,-99.9,40,36,35,29.83,29.77,0,-999,0,0.00
2013-5-26,79.1,78.7,78.0,-99.9,-99.9,-99.9,48,39,36,29.78,29.66,0,-999,0,0.00
2013-5-27,79.1,77.7,76.1,-99.9,-99.9,-99.9,46,41,38,29.78,29.61,0,-999,0,0.00
2013-5-28,78.0,77.5,76.8,-99.9,-99.9,-99.9,50,43,39,29.78,29.54,0,-999,0,0.00
2013-5-29,78.6,78.1,77.5,-99.9,-99.9,-99.9,56,48,43,29.65,29.50,0,-999,0,0.00
2013-5-30,78.4,77.2,75.7,-99.9,-99.9,-99.9,58,51,46,29.66,29.44,0,-999,0,0.00
2013-5-31,77.3,76.9,75.7,-99.9,-99.9,-99.9,54,49,43,29.65,29.41,0,-999,0,0.00
2013-6-1,77.7,77.0,76.2,-99.9,-99.9,-99.9,55,48,43,29.72,29.62,0,-999,0,0.00
2013-6-2,78.4,77.8,77.3,-99.9,-99.9,-99.9,59,54,48,30.02,29.65,0,-999,0,0.00
2013-6-3,78.4,77.8,77.1,-99.9,-99.9,-99.9,56,51,46,30.10,30.02,0,-999,0,0.00
2013-6-4,77.5,77.3,77.1,-99.9,-99.9,-99.9,50,48,46,30.08,30.02,0,-999,0,0.00
2013-6-5,77.9,77.2,76.6,-99.9,-99.9,-99.9,50,45,41,30.11,30.05,0,-999,0,0.00
2013-6-6,77.7,77.1,76.6,-99.9,-99.9,-99.9,50,47,44,30.16,30.10,0,-999,0,0.00
2013-6-7,79.1,78.0,77.3,-99.9,-99.9,-99.9,53,50,48,30.13,30.04,0,-999,0,0.00
2013-6-8,79.8,79.1,78.6,-99.9,-99.9,-99.9,53,51,50,30.07,29.89,0,-999,0,0.00
2013-6-9,79.8,79.3,78.4,-99.9,-99.9,-99.9,54,50,44,29.88,29.69,0,-999,0,0.00
2013-6-10,79.8,79.6,79.1,-99.9,-99.9,-99.9,54,52,50,29.85,29.69,0,-999,0,0.00
2013-6-11,80.6,79.8,79.5,-99.9,-99.9,-99.9,51,48,43,30.05,29.85,0,-999,0,0.00
2013-6-12,80.6,80.0,79.5,-99.9,-99.9,-99.9,46,44,41,30.13,30.05,0,-999,0,0.00
2013-6-13,80.7,80.3,79.8,-99.9,-99.9,-99.9,44,43,40,30.13,29.91,0,-999,0,0.00
2013-6-14,80.7,80.5,79.7,-99.9,-99.9,-99.9,46,43,40,30.13,29.91,0,-999,0,0.00
2013-6-15,81.6,80.7,80.2,-99.9,-99.9,-99.9,47,43,41,30.06,29.91,0,-999,0,0.00
2013-6-16,82.0,81.2,80.6,-99.9,-99.9,-99.9,46,44,40,30.04,29.96,0,-999,0,0.00
2013-6-17,82.2,81.4,80.9,-99.9,-99.9,-99.9,49,45,39,30.04,29.94,0,-999,0,0.00
2013-6-18,82.2,81.6,80.4,-99.9,-99.9,-99.9,52,48,40,30.02,29.95,0,-999,0,0.00
2013-6-19,82.9,82.2,80.6,-99.9,-99.9,-99.9,55,50,39,30.03,29.90,0,-999,0,0.00
2013-6-20,83.8,83.1,82.2,-99.9,-99.9,-99.9,54,50,42,29.91,29.75,0,-999,0,0.00
2013-6-21,84.5,83.8,83.4,-99.9,-99.9,-99.9,49,47,45,30.01,29.84,0,-999,0,0.00
2013-6-22,84.5,84.1,83.4,-99.9,-99.9,-99.9,46,44,40,30.03,29.92,0,-999,0,0.00
2013-6-23,84.3,83.7,83.1,-99.9,-99.9,-99.9,45,41,36,29.97,29.88,0,-999,0,0.00
2013-6-24,83.8,82.3,80.2,-99.9,-99.9,-99.9,43,40,36,30.07,29.96,0,-999,0,0.00
2013-6-25,81.6,80.9,80.0,-99.9,-99.9,-99.9,43,41,39,30.14,29.99,0,-999,0,0.00
2013-6-26,80.2,79.6,78.8,-99.9,-99.9,-99.9,40,37,33,30.25,30.11,0,-999,0,0.00
2013-6-27,80.2,79.5,78.8,-99.9,-99.9,-99.9,38,36,33,30.25,30.16,0,-999,0,0.00
2013-6-28,79.8,79.5,79.3,-99.9,-99.9,-99.9,41,38,36,30.18,30.06,0,-999,0,0.00
2013-6-29,79.8,79.6,79.3,-99.9,-99.9,-99.9,41,39,37,30.09,29.98,0,-999,0,0.00
2013-6-30,80.2,79.6,79.3,-99.9,-99.9,-99.9,41,38,36,30.19,30.07,0,-999,0,0.00
2013-7-1,80.7,80.2,79.7,-99.9,-99.9,-99.9,40,38,37,30.12,30.01,0,-999,0,0.00
2013-7-2,80.7,80.1,79.7,-99.9,-99.9,-99.9,45,40,37,30.03,29.92,0,-999,0,0.00
2013-7-3,81.1,80.7,80.2,-99.9,-99.9,-99.9,45,43,42,29.97,29.86,0,-999,0,0.00
2013-7-4,81.6,81.3,80.9,-99.9,-99.9,-99.9,47,45,42,30.21,29.97,0,-999,0,0.00
2013-7-5,82.4,81.8,81.5,-99.9,-99.9,-99.9,47,46,45,30.34,30.20,0,-999,0,0.00
2013-7-6,82.2,81.8,81.6,-99.9,-99.9,-99.9,49,47,46,30.36,30.30,0,-999,0,0.00
2013-7-7,82.0,80.9,79.8,-99.9,-99.9,-99.9,46,45,39,30.38,30.31,0,-999,0,0.00
2013-7-8,82.5,81.9,81.6,-99.9,-99.9,-99.9,48,44,42,30.39,30.29,0,-999,0,0.00
2013-7-9,83.1,82.2,81.5,-99.9,-99.9,-99.9,49,46,44,30.32,30.09,0,-999,0,0.00
2013-7-10,83.8,83.2,82.7,-99.9,-99.9,-99.9,47,46,43,30.09,29.91,0,-999,0,0.00
2013-7-11,83.4,82.4,81.6,-99.9,-99.9,-99.9,42,39,38,30.06,29.98,0,-999,0,0.00
2013-7-12,83.1,82.6,82.0,-99.9,-99.9,-99.9,44,41,37,30.11,30.05,0,-999,0,0.00
2013-7-13,83.4,82.8,82.0,-99.9,-99.9,-99.9,49,43,39,30.11,30.06,0,-999,0,0.00
2013-7-14,83.4,82.7,81.6,-99.9,-99.9,-99.9,50,44,39,30.13,30.06,0,-999,0,0.00
2013-7-15,83.1,82.3,81.6,-99.9,-99.9,-99.9,47,42,38,30.19,30.09,0,-999,0,0.00
2013-7-16,82.4,81.8,81.1,-99.9,-99.9,-99.9,42,40,36,30.24,30.14,0,-999,0,0.00
2013-7-17,83.4,82.6,81.8,-99.9,-99.9,-99.9,47,43,38,30.19,30.13,0,-999,0,0.00
2013-7-18,83.3,82.8,82.0,-99.9,-99.9,-99.9,46,43,40,30.19,30.11,0,-999,0,0.00
2013-7-19,83.4,82.9,82.4,-99.9,-99.9,-99.9,47,44,39,30.15,30.03,0,-999,0,0.00
2013-7-20,83.4,82.9,82.4,-99.9,-99.9,-99.9,47,43,39,30.13,30.07,0,-999,0,0.00
2013-7-21,83.6,82.9,82.4,-99.9,-99.9,-99.9,44,42,39,30.19,30.10,0,-999,0,0.00
2013-7-22,84.0,83.0,82.4,-99.9,-99.9,-99.9,45,41,37,30.12,29.96,0,-999,0,0.00
2013-7-23,84.3,83.7,83.3,-99.9,-99.9,-99.9,45,42,40,29.98,29.89,0,-999,0,0.00
2013-7-24,84.5,83.9,83.3,-99.9,-99.9,-99.9,45,41,39,29.99,29.88,0,-999,0,0.00
2013-7-25,84.9,84.5,83.8,-99.9,-99.9,-99.9,51,47,41,30.02,29.97,0,-999,0,0.00
2013-7-26,85.4,84.5,83.8,-99.9,-99.9,-99.9,50,47,45,30.02,29.91,0,-999,0,0.00
2013-7-27,85.4,84.8,84.0,-99.9,-99.9,-99.9,51,47,41,29.93,29.79,0,-999,0,0.00
2013-7-28,85.6,84.9,84.2,-99.9,-99.9,-99.9,48,45,39,29.90,29.79,0,-999,0,0.00
2013-7-29,86.1,85.6,84.7,-99.9,-99.9,-99.9,51,48,43,29.95,29.73,0,-999,0,0.00
2013-7-30,85.8,85.2,84.9,-99.9,-99.9,-99.9,50,45,41,30.08,29.90,0,-999,0,0.00
2013-7-31,85.2,84.6,84.0,-99.9,-99.9,-99.9,46,43,38,30.12,30.04,0,-999,0,0.00
2013-8-1,85.2,84.6,84.0,-99.9,-99.9,-99.9,48,44,40,30.13,30.01,0,-999,0,0.00
2013-8-2,85.4,84.8,84.0,-99.9,-99.9,-99.9,47,45,43,30.06,29.93,0,-999,0,0.00
2013-8-3,85.6,84.7,83.4,-99.9,-99.9,-99.9,48,44,38,30.05,29.95,0,-999,0,0.00
2013-8-4,85.2,84.6,83.8,-99.9,-99.9,-99.9,50,45,36,30.19,30.02,0,-999,0,0.00
2013-8-5,85.2,84.5,83.8,-99.9,-99.9,-99.9,49,47,43,30.16,30.00,0,-999,0,0.00
2013-8-6,85.4,85.0,84.7,-99.9,-99.9,-99.9,50,48,43,30.01,29.86,0,-999,0,0.00
2013-8-7,86.0,85.1,84.5,-99.9,-99.9,-99.9,51,47,42,30.03,29.83,0,-999,0,0.00
2013-8-8,86.0,85.7,85.1,-99.9,-99.9,-99.9,50,47,43,30.03,29.79,0,-999,0,0.00
2013-8-9,85.8,84.9,84.2,-99.9,-99.9,-99.9,47,46,43,30.11,30.03,0,-999,0,0.00
2013-8-10,84.2,83.2,82.4,-99.9,-99.9,-99.9,48,44,41,30.12,30.01,0,-999,0,0.00
2013-8-11,84.2,82.8,82.0,-99.9,-99.9,-99.9,47,43,38,30.08,30.01,0,-999,0,0.00
2013-8-12,83.6,82.6,81.5,-99.9,-99.9,-99.9,45,40,39,30.09,29.89,0,-999,0,0.00
2013-8-13,84.0,83.5,83.1,-99.9,-99.9,-99.9,43,40,37,30.10,29.88,0,-999,0,0.00
2013-8-14,83.6,83.2,82.5,-99.9,-99.9,-99.9,39,37,34,30.22,30.09,0,-999,0,0.00
2013-8-15,82.9,82.5,82.0,-99.9,-99.9,-99.9,37,35,31,30.27,30.17,0,-999,0,0.00
2013-8-16,83.1,81.9,80.9,-99.9,-99.9,-99.9,39,35,34,30.20,30.06,0,-999,0,0.00
2013-8-17,83.6,82.7,81.6,-99.9,-99.9,-99.9,45,39,36,30.07,29.96,0,-999,0,0.00
2013-8-18,84.0,83.4,82.9,-99.9,-99.9,-99.9,46,42,38,30.00,29.91,0,-999,0,0.00
2013-8-19,84.0,83.5,83.3,-99.9,-99.9,-99.9,50,46,42,30.08,29.96,0,-999,0,0.00
2013-8-20,83.4,82.8,82.5,-99.9,-99.9,-99.9,48,43,41,30.34,30.08,0,-999,0,0.00
2013-8-21,83.1,82.5,82.0,-99.9,-99.9,-99.9,44,42,40,30.34,30.22,0,-999,0,0.00
2013-8-22,83.1,82.6,82.2,-99.9,-99.9,-99.9,44,40,39,30.21,30.09,0,-999,0,0.00
2013-8-23,83.1,82.8,82.4,-99.9,-99.9,-99.9,48,43,40,30.12,30.04,0,-999,0,0.00
2013-8-24,83.1,82.5,82.0,-99.9,-99.9,-99.9,46,43,40,30.06,29.88,0,-999,0,0.00
2013-8-25,82.4,82.1,81.3,-99.9,-99.9,-99.9,47,43,40,29.92,29.86,0,-999,0,0.00
2013-8-26,81.6,81.4,81.3,-99.9,-99.9,-99.9,47,44,41,30.00,29.89,0,-999,0,0.00
2013-8-27,81.3,80.7,80.4,-99.9,-99.9,-99.9,46,42,41,29.99,29.95,0,-999,0,0.00
2013-8-28,80.7,80.6,80.4,-99.9,-99.9,-99.9,45,44,42,30.09,29.93,0,-999,0,0.00
2013-8-29,80.9,80.4,79.8,-99.9,-99.9,-99.9,49,43,41,30.16,30.09,0,-999,0,0.00
2013-8-30,81.1,80.6,80.2,-99.9,-99.9,-99.9,49,44,42,30.16,30.06,0,-999,0,0.00
2013-8-31,81.3,80.6,80.0,-99.9,-99.9,-99.9,50,45,42,30.09,30.02,0,-999,0,0.00
2013-9-1,81.3,80.8,80.6,-99.9,-99.9,-99.9,49,45,40,30.22,30.08,0,-999,0,0.00
2013-9-2,80.9,80.3,79.8,-99.9,-99.9,-99.9,48,42,39,30.22,30.10,0,-999,0,0.00
2013-9-3,80.7,80.5,80.2,-99.9,-99.9,-99.9,51,46,44,30.30,30.09,0,-999,0,0.00
2013-9-4,81.1,80.6,80.2,-99.9,-99.9,-99.9,52,49,48,30.30,30.18,0,-999,0,0.00
2013-9-5,81.6,80.8,80.4,-99.9,-99.9,-99.9,54,49,47,30.18,30.02,0,-999,0,0.00
2013-9-6,82.2,81.3,80.7,-99.9,-99.9,-99.9,52,48,43,30.02,29.93,0,-999,0,0.00
2013-9-7,82.4,81.6,81.1,-99.9,-99.9,-99.9,49,45,42,30.11,30.01,0,-999,0,0.00
2013-9-8,82.4,81.7,81.1,-99.9,-99.9,-99.9,50,44,41,30.11,29.97,0,-999,0,0.00
2013-9-9,82.2,81.7,81.3,-99.9,-99.9,-99.9,52,45,42,30.09,29.85,0,-999,0,0.00
2013-9-10,81.5,81.0,80.6,-99.9,-99.9,-99.9,46,41,38,30.08,29.91,0,-999,0,0.00
2013-9-11,80.7,80.2,79.5,-99.9,-99.9,-99.9,44,40,37,29.99,29.90,0,-999,0,0.00
2013-9-12,80.6,80.1,79.7,-99.9,-99.9,-99.9,46,42,40,29.99,29.87,0,-999,0,0.00
2013-9-13,80.6,80.1,79.8,-99.9,-99.9,-99.9,47,43,42,30.05,29.99,0,-999,0,0.00
2013-9-14,80.9,80.0,79.5,-99.9,-99.9,-99.9,49,43,41,30.02,29.89,0,-999,0,0.00
2013-9-15,80.7,80.4,80.2,-99.9,-99.9,-99.9,50,48,46,29.91,29.73,0,-999,0,0.00
2013-9-16,80.2,79.8,79.3,-99.9,-99.9,-99.9,51,48,44,29.73,29.52,0,-999,0,0.00
2013-9-17,79.5,79.3,78.8,-99.9,-99.9,-99.9,49,44,40,29.69,29.51,0,-999,0,0.00
2013-9-18,79.7,79.3,78.8,-99.9,-99.9,-99.9,52,46,41,29.67,29.44,0,-999,0,0.00
2013-9-19,79.5,79.2,78.9,-99.9,-99.9,-99.9,51,46,42,29.94,29.60,0,-999,0,0.00
2013-9-20,79.5,78.8,77.9,-99.9,-99.9,-99.9,48,42,38,30.05,29.91,0,-999,0,0.00
2013-9-21,79.7,79.3,78.8,-99.9,-99.9,-99.9,49,46,44,30.32,30.05,0,-999,0,0.00
2013-9-22,79.8,79.4,78.9,-99.9,-99.9,-99.9,50,46,43,30.33,30.21,0,-999,0,0.00
2013-9-23,79.8,79.5,79.1,-99.9,-99.9,-99.9,48,46,45,30.21,30.06,0,-999,0,0.00
2013-9-24,79.8,79.6,79.1,-99.9,-99.9,-99.9,49,46,44,30.06,29.93,0,-999,0,0.00
2013-9-25,79.8,79.5,79.1,-99.9,-99.9,-99.9,49,46,43,29.96,29.81,0,-999,0,0.00
2013-9-26,80.2,79.6,79.1,-99.9,-99.9,-99.9,50,47,44,30.06,29.76,0,-999,0,0.00
2013-9-27,79.5,79.1,78.6,-99.9,-99.9,-99.9,48,45,41,30.10,30.01,0,-999,0,0.00
2013-9-28,79.8,79.2,78.8,-99.9,-99.9,-99.9,48,45,38,30.04,29.95,0,-999,0,0.00
2013-9-29,80.2,79.6,79.1,-99.9,-99.9,-99.9,48,43,39,30.01,29.92,0,-999,0,0.00
2013-9-30,80.0,79.8,79.5,-99.9,-99.9,-99.9,44,42,38,29.93,29.86,0,-999,0,0.00
2013-10-1,80.4,80.0,79.8,-99.9,-99.9,-99.9,42,40,36,30.07,29.91,0,-999,0,0.00
2013-10-2,80.2,79.5,78.9,-99.9,-99.9,-99.9,41,37,32,30.34,30.07,0,-999,0,0.00
2013-10-3,80.2,79.4,78.9,-99.9,-99.9,-99.9,43,39,35,30.38,30.30,0,-999,0,0.00
2013-10-4,80.0,79.7,79.5,-99.9,-99.9,-99.9,43,40,36,30.35,30.21,0,-999,0,0.00
2013-10-5,79.5,79.3,78.6,-99.9,-99.9,-99.9,40,38,31,30.20,30.04,0,-999,0,0.00
2013-10-6,79.8,79.3,78.6,-99.9,-99.9,-99.9,47,40,35,30.29,30.10,0,-999,0,0.00
2013-10-7,80.2,79.7,79.5,-99.9,-99.9,-99.9,50,44,42,30.35,30.29,0,-999,0,0.00
2013-10-8,80.4,79.6,78.8,-99.9,-99.9,-99.9,50,44,39,30.31,30.19,0,-999,0,0.00
2013-10-9,79.7,79.4,78.9,-99.9,-99.9,-99.9,47,43,41,30.20,29.91,0,-999,0,0.00
2013-10-10,80.0,79.5,79.1,-99.9,-99.9,-99.9,50,46,41,29.90,29.65,0,-999,0,0.00
2013-10-11,80.0,79.7,78.6,-99.9,-99.9,-99.9,52,46,40,30.10,29.80,0,-999,0,0.00
2013-10-12,79.8,79.5,78.8,-99.9,-99.9,-99.9,50,47,44,30.11,29.97,0,-999,0,0.00
2013-10-13,79.7,79.4,78.4,-99.9,-99.9,-99.9,48,45,37,30.16,30.03,0,-999,0,0.00
2013-10-14,80.0,79.6,79.1,-99.9,-99.9,-99.9,45,43,40,30.18,30.05,0,-999,0,0.00
2013-10-15,80.0,79.6,78.8,-99.9,-99.9,-99.9,47,44,39,30.05,29.74,0,-999,0,0.00
2013-10-16,80.0,79.5,78.9,-99.9,-99.9,-99.9,48,43,41,29.99,29.72,0,-999,0,0.00
2013-10-17,80.2,79.8,79.5,-99.9,-99.9,-99.9,50,46,43,29.98,29.85,0,-999,0,0.00
2013-10-18,79.8,79.4,77.5,-99.9,-99.9,-99.9,45,43,36,30.15,29.85,0,-999,0,0.00
2013-10-19,80.2,79.1,78.2,-99.9,-99.9,-99.9,47,42,36,30.16,30.00,0,-999,0,0.00
2013-10-20,79.8,79.6,79.1,-99.9,-99.9,-99.9,47,43,40,30.05,29.99,0,-999,0,0.00
2013-10-21,80.0,79.6,79.1,-99.9,-99.9,-99.9,48,46,44,30.06,30.01,0,-999,0,0.00
2013-10-22,80.6,80.0,79.5,-99.9,-99.9,-99.9,51,48,43,30.06,29.93,0,-999,0,0.00
2013-10-23,80.4,80.0,79.7,-99.9,-99.9,-99.9,50,48,46,29.97,29.85,0,-999,0,0.00
2013-10-24,80.2,79.8,79.3,-99.9,-99.9,-99.9,48,46,43,30.15,29.96,0,-999,0,0.00
2013-10-25,80.4,79.9,79.1,-99.9,-99.9,-99.9,52,47,41,30.14,30.04,0,-999,0,0.00
2013-10-26,80.9,80.3,79.8,-99.9,-99.9,-99.9,52,48,45,30.06,29.98,0,-999,0,0.00
2013-10-27,80.2,79.8,75.0,-99.9,-99.9,-99.9,51,45,38,29.99,29.77,0,-999,0,0.00
2013-10-28,80.9,80.2,79.8,-99.9,-99.9,-99.9,48,43,40,29.89,29.64,0,-999,0,0.00
2013-10-29,80.7,80.3,78.9,-99.9,-99.9,-99.9,44,42,38,30.06,29.80,0,-999,0,0.00
2013-10-30,80.2,79.8,79.5,-99.9,-99.9,-99.9,42,41,36,30.35,30.06,0,-999,0,0.00
2013-10-31,80.2,79.9,78.4,-99.9,-99.9,-99.9,44,41,31,30.36,30.18,0,-999,0,0.00
2013-11-1,80.2,79.4,78.6,-99.9,-99.9,-99.9,43,40,35,30.18,29.96,0,-999,0,0.00
2013-11-2,79.7,79.2,78.6,-99.9,-99.9,-99.9,45,42,38,29.96,29.68,0,-999,0,0.00
2013-11-3,80.0,79.4,78.8,-99.9,-99.9,-99.9,47,43,39,29.78,29.59,0,-999,0,0.00
2013-11-4,79.3,79.1,78.8,-99.9,-99.9,-99.9,43,42,39,29.76,29.32,0,-999,0,0.00
2013-11-5,79.3,78.8,78.2,-99.9,-99.9,-99.9,43,40,36,29.55,29.32,0,-999,0,0.00
2013-11-6,79.8,79.3,78.6,-99.9,-99.9,-99.9,45,41,37,29.73,29.40,0,-999,0,0.00
2013-11-7,80.2,79.6,79.1,-99.9,-99.9,-99.9,47,44,42,29.86,29.70,0,-999,0,0.00
2013-11-8,80.0,79.8,79.3,-99.9,-99.9,-99.9,48,44,42,29.86,29.74,0,-999,0,0.00
2013-11-9,80.2,79.6,79.1,-99.9,-99.9,-99.9,48,44,38,29.91,29.73,0,-999,0,0.00
2013-11-10,80.0,79.6,78.8,-99.9,-99.9,-99.9,46,42,36,30.00,29.62,0,-999,0,0.00
2013-11-11,79.7,79.2,78.8,-99.9,-99.9,-99.9,44,41,38,30.46,30.00,0,-999,0,0.00
2013-11-12,79.3,78.8,77.7,-99.9,-99.9,-99.9,42,39,32,30.45,30.23,0,-999,0,0.00
2013-11-13,78.8,78.4,77.0,-99.9,-99.9,-99.9,42,39,32,30.40,30.24,0,-999,0,0.00
2013-11-14,78.6,78.0,77.3,-99.9,-99.9,-99.9,41,39,33,30.35,30.10,0,-999,0,0.00
2013-11-15,78.4,78.0,77.0,-99.9,-99.9,-99.9,41,39,33,30.39,30.13,0,-999,0,0.00
2013-11-16,79.1,78.1,77.1,-99.9,-99.9,-99.9,45,39,33,30.42,30.31,0,-999,0,0.00
2013-11-17,78.8,78.5,77.7,-99.9,-99.9,-99.9,43,40,35,30.31,30.11,0,-999,0,0.00
2013-11-18,78.8,78.4,78.0,-99.9,-99.9,-99.9,45,41,36,30.11,29.84,0,-999,0,0.00
2013-11-19,78.9,78.4,77.9,-99.9,-99.9,-99.9,46,42,37,29.85,29.59,0,-999,0,0.00
2013-11-20,78.6,78.3,77.1,-99.9,-99.9,-99.9,46,42,36,29.63,29.51,0,-999,0,0.00
2013-11-21,78.9,78.4,77.9,-99.9,-99.9,-99.9,45,41,38,29.62,29.51,0,-999,0,0.00
2013-11-22,78.9,78.4,77.9,-99.9,-99.9,-99.9,45,42,39,29.83,29.57,0,-999,0,0.00
2013-11-23,79.3,78.6,77.3,-99.9,-99.9,-99.9,48,43,36,29.92,29.81,0,-999,0,0.00
2013-11-24,78.6,78.0,76.4,-99.9,-99.9,-99.9,47,41,35,30.09,29.89,0,-999,0,0.00
2013-11-25,78.4,78.0,77.3,-99.9,-99.9,-99.9,43,40,32,30.27,30.09,0,-999,0,0.00
2013-11-26,78.4,77.7,77.0,-99.9,-99.9,-99.9,41,38,32,30.44,30.26,0,-999,0,0.00
2013-11-27,78.2,77.5,76.4,-99.9,-99.9,-99.9,44,37,28,30.49,30.40,0,-999,0,0.00
2013-11-28,78.6,77.7,76.8,-99.9,-99.9,-99.9,39,37,31,30.40,30.24,0,-999,0,0.00
2013-11-29,78.4,77.6,77.1,-99.9,-99.9,-99.9,40,37,31,30.26,29.80,0,-999,0,0.00
2013-11-30,77.9,77.2,75.9,-99.9,-99.9,-99.9,46,38,30,30.23,29.79,0,-999,0,0.00
2013-12-1,78.4,77.5,76.6,-99.9,-99.9,-99.9,50,43,39,30.33,30.22,0,-999,0,0.00
2013-12-2,78.8,77.9,77.3,-99.9,-99.9,-99.9,46,43,34,30.56,30.32,0,-999,0,0.00
2013-12-3,78.2,77.8,77.3,-99.9,-99.9,-99.9,44,40,33,30.55,30.34,0,-999,0,0.00
2013-12-4,78.8,77.8,76.8,-99.9,-99.9,-99.9,43,40,32,30.33,30.17,0,-999,0,0.00
2013-12-5,78.6,77.9,77.3,-99.9,-99.9,-99.9,41,38,33,30.26,29.60,0,-999,0,0.00
2013-12-6,78.8,77.7,76.8,-99.9,-99.9,-99.9,42,38,31,29.92,29.63,0,-999,0,0.00
2013-12-7,78.6,77.9,77.3,-99.9,-99.9,-99.9,40,36,32,30.17,29.92,0,-999,0,0.00
2013-12-8,78.8,78.2,77.0,-99.9,-99.9,-99.9,47,37,31,30.24,30.15,0,-999,0,0.00
2013-12-9,78.0,77.8,77.0,-99.9,-99.9,-99.9,44,39,33,30.39,30.12,0,-999,0,0.00
2013-12-10,78.6,78.0,77.5,-99.9,-99.9,-99.9,45,43,40,30.58,30.39,0,-999,0,0.00
2013-12-11,78.8,78.2,77.5,-99.9,-99.9,-99.9,44,41,35,30.58,30.50,0,-999,0,0.00
2013-12-12,79.7,78.6,77.5,-99.9,-99.9,-99.9,42,40,30,30.52,30.37,0,-999,0,0.00
2013-12-13,79.5,79.0,78.6,-99.9,-99.9,-99.9,42,40,33,30.37,30.26,0,-999,0,0.00
2013-12-14,79.8,79.3,78.6,-99.9,-99.9,-99.9,45,40,31,30.41,30.24,0,-999,0,0.00
2013-12-15,80.6,79.6,79.1,-99.9,-99.9,-99.9,46,41,36,30.45,30.38,0,-999,0,0.00
2013-12-16,80.2,78.9,77.3,-99.9,-99.9,-99.9,42,38,27,30.46,30.41,0,-999,0,0.00
2013-12-17,78.8,78.4,77.3,-99.9,-99.9,-99.9,39,37,29,30.42,30.35,0,-999,0,0.00
2013-12-18,78.8,78.3,77.7,-99.9,-99.9,-99.9,42,37,31,30.35,30.13,0,-999,0,0.00
2013-12-19,78.9,78.1,77.3,-99.9,-99.9,-99.9,44,39,31,30.13,29.96,0,-999,0,0.00
2013-12-20,79.5,78.4,77.1,-99.9,-99.9,-99.9,43,39,31,30.44,30.06,0,-999,0,0.00
2013-12-21,79.1,78.1,77.3,-99.9,-99.9,-99.9,41,38,32,30.50,30.30,0,-999,0,0.00
2013-12-22,77.3,76.9,76.6,-99.9,-99.9,-99.9,36,35,35,30.30,30.09,0,-999,0,0.00
2013-12-23,76.6,76.5,76.4,-99.9,-99.9,-99.9,35,35,35,30.14,29.94,0,-999,0,0.00
2013-12-24,76.4,76.2,75.9,-99.9,-99.9,-99.9,35,35,35,29.94,29.61,0,-999,0,0.00
2013-12-25,76.4,75.9,75.7,-99.9,-99.9,-99.9,40,34,33,29.61,29.36,0,-999,0,0.00
2013-12-26,78.6,77.6,76.4,-99.9,-99.9,-99.9,50,42,38,29.58,29.29,0,-999,0,0.00
2013-12-27,78.6,78.0,77.0,-99.9,-99.9,-99.9,50,45,35,29.82,29.58,0,-999,0,0.00
2013-12-28,78.6,77.7,76.6,-99.9,-99.9,-99.9,49,43,35,29.79,29.72,0,-999,0,0.00
2013-12-29,78.2,77.6,77.0,-99.9,-99.9,-99.9,47,43,34,30.25,29.77,0,-999,0,0.00
2013-12-30,78.2,77.5,77.3,-99.9,-99.9,-99.9,46,41,38,30.38,30.25,0,-999,0,0.00
2013-12-31,78.0,77.4,75.9,-99.9,-99.9,-99.9,45,40,28,30.29,30.05,0,-999,0,0.00
2014-1-1,78.6,77.7,77.0,-99.9,-99.9,-99.9,48,41,33,30.05,29.91,0,-999,0,0.00
2014-1-2,78.6,77.3,76.1,-99.9,-99.9,-99.9,42,39,31,29.91,29.80,0,-999,0,0.00